sensor_id;sensor_type;location;lat;lon;timestamp;pressure;altitude;pressure_sealevel;temperature;humidity
50632;BME280;49583;45.590;-122.498;2023-07-09T00:01:21;100824.89;;;24.53;45.13
50632;BME280;49583;45.590;-122.498;2023-07-09T00:03:34;100822.47;;;24.53;45.17
50632;BME280;49583;45.590;-122.498;2023-07-09T00:05:48;100816.64;;;24.53;45.20
50632;BME280;49583;45.590;-122.498;2023-07-09T00:08:01;100815.84;;;24.57;45.22
50632;BME280;49583;45.590;-122.498;2023-07-09T00:10:20;100814.30;;;24.61;45.12
50632;BME280;49583;45.590;-122.498;2023-07-09T00:12:36;100810.98;;;24.62;45.07
50632;BME280;49583;45.590;-122.498;2023-07-09T00:14:49;100805.16;;;24.63;45.15
50632;BME280;49583;45.590;-122.498;2023-07-09T00:17:02;100803.32;;;24.66;45.13
50632;BME280;49583;45.590;-122.498;2023-07-09T00:19:25;100803.90;;;24.65;45.13
50632;BME280;49583;45.590;-122.498;2023-07-09T00:21:43;100799.44;;;24.67;45.22
50632;BME280;49583;45.590;-122.498;2023-07-09T00:23:56;100798.98;;;24.69;45.22
50632;BME280;49583;45.590;-122.498;2023-07-09T00:26:16;100795.55;;;24.70;45.08
50632;BME280;49583;45.590;-122.498;2023-07-09T00:28:33;100792.79;;;24.70;45.01
50632;BME280;49583;45.590;-122.498;2023-07-09T00:30:50;100794.00;;;24.74;45.09
50632;BME280;49583;45.590;-122.498;2023-07-09T00:33:03;100791.58;;;24.79;45.18
50632;BME280;49583;45.590;-122.498;2023-07-09T00:35:16;100789.48;;;24.84;45.18
50632;BME280;49583;45.590;-122.498;2023-07-09T00:37:32;100788.61;;;24.85;45.14
50632;BME280;49583;45.590;-122.498;2023-07-09T00:39:55;100786.15;;;24.87;45.03
50632;BME280;49583;45.590;-122.498;2023-07-09T00:42:13;100785.40;;;24.88;45.09
50632;BME280;49583;45.590;-122.498;2023-07-09T00:44:29;100781.39;;;24.88;45.04
50632;BME280;49583;45.590;-122.498;2023-07-09T00:49:36;100775.48;;;24.92;45.16
50632;BME280;49583;45.590;-122.498;2023-07-09T00:52:07;100779.05;;;24.97;44.99
50632;BME280;49583;45.590;-122.498;2023-07-09T00:54:35;100773.82;;;24.97;45.11
50632;BME280;49583;45.590;-122.498;2023-07-09T00:56:52;100773.83;;;24.97;45.02
50632;BME280;49583;45.590;-122.498;2023-07-09T00:59:11;100776.67;;;24.96;44.88
50632;BME280;49583;45.590;-122.498;2023-07-09T01:01:26;100770.29;;;24.95;44.99
50632;BME280;49583;45.590;-122.498;2023-07-09T01:03:40;100771.95;;;24.96;45.09
50632;BME280;49583;45.590;-122.498;2023-07-09T01:05:54;100767.80;;;24.96;45.26
50632;BME280;49583;45.590;-122.498;2023-07-09T01:08:09;100765.58;;;24.95;45.25
50632;BME280;49583;45.590;-122.498;2023-07-09T01:10:33;100765.16;;;24.96;45.23
50632;BME280;49583;45.590;-122.498;2023-07-09T01:12:46;100762.61;;;24.97;45.27
50632;BME280;49583;45.590;-122.498;2023-07-09T01:15:02;100761.27;;;24.99;45.18
50632;BME280;49583;45.590;-122.498;2023-07-09T01:17:15;100760.16;;;24.97;45.01
50632;BME280;49583;45.590;-122.498;2023-07-09T01:19:53;100759.02;;;24.93;44.99
50632;BME280;49583;45.590;-122.498;2023-07-09T01:22:07;100762.23;;;24.93;45.19
50632;BME280;49583;45.590;-122.498;2023-07-09T01:27:02;100764.91;;;24.96;45.11
50632;BME280;49583;45.590;-122.498;2023-07-09T01:29:16;100764.69;;;24.98;45.19
50632;BME280;49583;45.590;-122.498;2023-07-09T01:31:30;100763.54;;;24.98;45.09
50632;BME280;49583;45.590;-122.498;2023-07-09T01:33:45;100761.55;;;24.98;45.17
50632;BME280;49583;45.590;-122.498;2023-07-09T01:36:10;100763.90;;;24.97;45.21
50632;BME280;49583;45.590;-122.498;2023-07-09T01:38:23;100765.52;;;24.94;45.19
50632;BME280;49583;45.590;-122.498;2023-07-09T01:40:40;100762.26;;;24.89;45.13
50632;BME280;49583;45.590;-122.498;2023-07-09T01:42:56;100764.30;;;24.83;45.10
50632;BME280;49583;45.590;-122.498;2023-07-09T01:45:11;100762.85;;;24.78;45.14
50632;BME280;49583;45.590;-122.498;2023-07-09T01:47:26;100766.45;;;24.75;45.42
50632;BME280;49583;45.590;-122.498;2023-07-09T01:49:39;100766.04;;;24.72;45.64
50632;BME280;49583;45.590;-122.498;2023-07-09T01:51:52;100767.19;;;24.72;45.68
50632;BME280;49583;45.590;-122.498;2023-07-09T01:54:06;100767.94;;;24.70;45.66
50632;BME280;49583;45.590;-122.498;2023-07-09T01:56:18;100770.55;;;24.67;45.69
50632;BME280;49583;45.590;-122.498;2023-07-09T01:58:32;100768.22;;;24.65;45.95
50632;BME280;49583;45.590;-122.498;2023-07-09T02:00:44;100768.54;;;24.63;46.04
50632;BME280;49583;45.590;-122.498;2023-07-09T02:02:58;100765.56;;;24.61;46.14
50632;BME280;49583;45.590;-122.498;2023-07-09T02:05:14;100766.42;;;24.59;46.10
50632;BME280;49583;45.590;-122.498;2023-07-09T02:07:27;100765.13;;;24.57;46.31
50632;BME280;49583;45.590;-122.498;2023-07-09T02:09:40;100764.95;;;24.55;46.42
50632;BME280;49583;45.590;-122.498;2023-07-09T02:11:56;100766.70;;;24.54;46.38
50632;BME280;49583;45.590;-122.498;2023-07-09T02:14:08;100769.46;;;24.52;46.52
50632;BME280;49583;45.590;-122.498;2023-07-09T02:16:22;100767.38;;;24.50;46.48
50632;BME280;49583;45.590;-122.498;2023-07-09T02:18:36;100767.66;;;24.49;46.60
50632;BME280;49583;45.590;-122.498;2023-07-09T02:20:53;100770.15;;;24.48;46.74
50632;BME280;49583;45.590;-122.498;2023-07-09T02:23:05;100767.33;;;24.47;46.70
50632;BME280;49583;45.590;-122.498;2023-07-09T02:25:20;100767.84;;;24.46;46.51
50632;BME280;49583;45.590;-122.498;2023-07-09T02:27:33;100769.98;;;24.45;46.62
50632;BME280;49583;45.590;-122.498;2023-07-09T02:29:46;100769.73;;;24.42;46.38
50632;BME280;49583;45.590;-122.498;2023-07-09T02:31:59;100769.95;;;24.40;46.42
50632;BME280;49583;45.590;-122.498;2023-07-09T02:34:15;100770.89;;;24.41;46.38
50632;BME280;49583;45.590;-122.498;2023-07-09T02:36:41;100769.50;;;24.42;46.54
50632;BME280;49583;45.590;-122.498;2023-07-09T02:38:55;100771.73;;;24.42;46.51
50632;BME280;49583;45.590;-122.498;2023-07-09T02:41:07;100768.98;;;24.43;46.66
50632;BME280;49583;45.590;-122.498;2023-07-09T02:43:20;100769.62;;;24.43;46.48
50632;BME280;49583;45.590;-122.498;2023-07-09T02:45:33;100770.73;;;24.43;46.49
50632;BME280;49583;45.590;-122.498;2023-07-09T02:47:49;100774.36;;;24.42;46.50
50632;BME280;49583;45.590;-122.498;2023-07-09T02:50:07;100777.77;;;24.41;46.50
50632;BME280;49583;45.590;-122.498;2023-07-09T02:52:20;100777.32;;;24.40;46.57
50632;BME280;49583;45.590;-122.498;2023-07-09T02:54:36;100777.38;;;24.38;46.57
50632;BME280;49583;45.590;-122.498;2023-07-09T02:56:54;100778.16;;;24.37;46.63
50632;BME280;49583;45.590;-122.498;2023-07-09T02:59:17;100774.48;;;24.35;46.70
50632;BME280;49583;45.590;-122.498;2023-07-09T03:01:30;100769.02;;;24.33;46.83
50632;BME280;49583;45.590;-122.498;2023-07-09T03:03:47;100774.75;;;24.29;46.97
50632;BME280;49583;45.590;-122.498;2023-07-09T03:06:22;100775.77;;;24.27;47.12
50632;BME280;49583;45.590;-122.498;2023-07-09T03:08:35;100778.43;;;24.24;47.25
50632;BME280;49583;45.590;-122.498;2023-07-09T03:10:48;100780.55;;;24.20;47.27
50632;BME280;49583;45.590;-122.498;2023-07-09T03:13:21;100783.26;;;24.15;47.60
50632;BME280;49583;45.590;-122.498;2023-07-09T03:15:37;100779.89;;;24.10;47.86
50632;BME280;49583;45.590;-122.498;2023-07-09T03:17:49;100779.86;;;24.06;48.28
50632;BME280;49583;45.590;-122.498;2023-07-09T03:20:02;100782.03;;;24.03;48.67
50632;BME280;49583;45.590;-122.498;2023-07-09T03:22:18;100778.60;;;23.98;48.81
50632;BME280;49583;45.590;-122.498;2023-07-09T03:24:31;100777.89;;;23.93;48.87
50632;BME280;49583;45.590;-122.498;2023-07-09T03:26:43;100778.73;;;23.90;49.12
50632;BME280;49583;45.590;-122.498;2023-07-09T03:29:16;100782.35;;;23.86;49.26
50632;BME280;49583;45.590;-122.498;2023-07-09T03:31:48;100784.73;;;23.82;49.43
50632;BME280;49583;45.590;-122.498;2023-07-09T03:34:04;100781.55;;;23.78;49.60
50632;BME280;49583;45.590;-122.498;2023-07-09T03:36:37;100782.89;;;23.74;49.86
50632;BME280;49583;45.590;-122.498;2023-07-09T03:39:02;100778.86;;;23.70;49.95
50632;BME280;49583;45.590;-122.498;2023-07-09T03:41:15;100779.48;;;23.66;50.18
50632;BME280;49583;45.590;-122.498;2023-07-09T03:43:31;100778.27;;;23.61;50.16
50632;BME280;49583;45.590;-122.498;2023-07-09T03:45:54;100781.56;;;23.57;50.38
50632;BME280;49583;45.590;-122.498;2023-07-09T03:48:10;100783.88;;;23.53;50.36
50632;BME280;49583;45.590;-122.498;2023-07-09T03:50:34;100782.41;;;23.48;50.37
50632;BME280;49583;45.590;-122.498;2023-07-09T03:52:58;100787.90;;;23.42;50.38
50632;BME280;49583;45.590;-122.498;2023-07-09T03:55:11;100791.20;;;23.36;50.37
50632;BME280;49583;45.590;-122.498;2023-07-09T03:57:24;100794.50;;;23.32;50.48
50632;BME280;49583;45.590;-122.498;2023-07-09T03:59:47;100793.00;;;23.26;50.48
50632;BME280;49583;45.590;-122.498;2023-07-09T04:02:00;100796.14;;;23.23;50.56
50632;BME280;49583;45.590;-122.498;2023-07-09T04:04:18;100798.06;;;23.20;50.60
50632;BME280;49583;45.590;-122.498;2023-07-09T04:06:52;100799.42;;;23.16;50.62
50632;BME280;49583;45.590;-122.498;2023-07-09T04:09:17;100801.46;;;23.13;50.49
50632;BME280;49583;45.590;-122.498;2023-07-09T04:11:30;100806.56;;;23.10;50.45
50632;BME280;49583;45.590;-122.498;2023-07-09T04:13:43;100812.48;;;23.07;50.56
50632;BME280;49583;45.590;-122.498;2023-07-09T04:15:56;100814.88;;;23.04;50.49
50632;BME280;49583;45.590;-122.498;2023-07-09T04:18:12;100817.55;;;23.00;50.70
50632;BME280;49583;45.590;-122.498;2023-07-09T04:20:25;100819.48;;;22.95;50.72
50632;BME280;49583;45.590;-122.498;2023-07-09T04:22:41;100824.45;;;22.92;50.70
50632;BME280;49583;45.590;-122.498;2023-07-09T04:24:54;100828.00;;;22.87;50.69
50632;BME280;49583;45.590;-122.498;2023-07-09T04:27:10;100829.18;;;22.83;50.75
50632;BME280;49583;45.590;-122.498;2023-07-09T04:29:24;100833.50;;;22.79;50.61
50632;BME280;49583;45.590;-122.498;2023-07-09T04:31:36;100829.64;;;22.74;50.76
50632;BME280;49583;45.590;-122.498;2023-07-09T04:33:49;100832.43;;;22.70;50.75
50632;BME280;49583;45.590;-122.498;2023-07-09T04:36:06;100832.55;;;22.66;50.72
50632;BME280;49583;45.590;-122.498;2023-07-09T04:38:22;100832.54;;;22.60;50.61
50632;BME280;49583;45.590;-122.498;2023-07-09T04:40:35;100830.80;;;22.56;50.77
50632;BME280;49583;45.590;-122.498;2023-07-09T04:42:48;100832.70;;;22.50;50.52
50632;BME280;49583;45.590;-122.498;2023-07-09T04:45:01;100838.66;;;22.45;50.59
50632;BME280;49583;45.590;-122.498;2023-07-09T04:47:14;100845.63;;;22.40;50.48
50632;BME280;49583;45.590;-122.498;2023-07-09T04:49:27;100848.02;;;22.37;50.38
50632;BME280;49583;45.590;-122.498;2023-07-09T04:51:50;100848.14;;;22.32;50.29
50632;BME280;49583;45.590;-122.498;2023-07-09T04:54:03;100852.17;;;22.30;50.29
50632;BME280;49583;45.590;-122.498;2023-07-09T04:56:16;100854.98;;;22.26;50.15
50632;BME280;49583;45.590;-122.498;2023-07-09T04:58:49;100858.34;;;22.22;50.17
50632;BME280;49583;45.590;-122.498;2023-07-09T05:01:05;100866.55;;;22.18;50.04
50632;BME280;49583;45.590;-122.498;2023-07-09T05:03:18;100867.13;;;22.15;50.11
50632;BME280;49583;45.590;-122.498;2023-07-09T05:05:31;100866.02;;;22.11;50.02
50632;BME280;49583;45.590;-122.498;2023-07-09T05:07:47;100865.70;;;22.07;50.17
50632;BME280;49583;45.590;-122.498;2023-07-09T05:10:04;100868.22;;;22.06;50.18
50632;BME280;49583;45.590;-122.498;2023-07-09T05:12:16;100868.43;;;22.03;50.19
50632;BME280;49583;45.590;-122.498;2023-07-09T05:14:30;100864.20;;;22.00;50.20
50632;BME280;49583;45.590;-122.498;2023-07-09T05:16:43;100867.46;;;21.95;50.25
50632;BME280;49583;45.590;-122.498;2023-07-09T05:18:57;100867.81;;;21.90;50.21
50632;BME280;49583;45.590;-122.498;2023-07-09T05:21:09;100868.39;;;21.85;50.10
50632;BME280;49583;45.590;-122.498;2023-07-09T05:23:27;100871.60;;;21.81;50.24
50632;BME280;49583;45.590;-122.498;2023-07-09T05:25:39;100870.31;;;21.77;50.16
50632;BME280;49583;45.590;-122.498;2023-07-09T05:27:52;100875.27;;;21.73;50.20
50632;BME280;49583;45.590;-122.498;2023-07-09T05:30:06;100871.77;;;21.65;50.27
50632;BME280;49583;45.590;-122.498;2023-07-09T05:32:20;100868.64;;;21.59;50.21
50632;BME280;49583;45.590;-122.498;2023-07-09T05:34:33;100870.25;;;21.54;50.25
50632;BME280;49583;45.590;-122.498;2023-07-09T05:36:46;100874.91;;;21.48;50.35
50632;BME280;49583;45.590;-122.498;2023-07-09T05:39:02;100877.05;;;21.41;50.50
50632;BME280;49583;45.590;-122.498;2023-07-09T05:41:15;100879.79;;;21.36;50.30
50632;BME280;49583;45.590;-122.498;2023-07-09T05:43:28;100876.33;;;21.29;50.47
50632;BME280;49583;45.590;-122.498;2023-07-09T05:45:43;100872.95;;;21.23;50.55
50632;BME280;49583;45.590;-122.498;2023-07-09T05:47:55;100872.83;;;21.21;50.65
50632;BME280;49583;45.590;-122.498;2023-07-09T05:50:10;100866.13;;;21.16;50.66
50632;BME280;49583;45.590;-122.498;2023-07-09T05:52:43;100869.27;;;21.09;50.68
50632;BME280;49583;45.590;-122.498;2023-07-09T05:55:08;100873.02;;;21.00;50.67
50632;BME280;49583;45.590;-122.498;2023-07-09T05:57:21;100875.36;;;20.94;50.67
50632;BME280;49583;45.590;-122.498;2023-07-09T05:59:33;100877.01;;;20.87;50.66
50632;BME280;49583;45.590;-122.498;2023-07-09T06:01:50;100886.35;;;20.80;50.76
50632;BME280;49583;45.590;-122.498;2023-07-09T06:04:03;100882.47;;;20.75;50.89
50632;BME280;49583;45.590;-122.498;2023-07-09T06:06:17;100877.77;;;20.70;50.98
50632;BME280;49583;45.590;-122.498;2023-07-09T06:08:30;100880.10;;;20.64;50.91
50632;BME280;49583;45.590;-122.498;2023-07-09T06:10:52;100887.09;;;20.60;51.13
50632;BME280;49583;45.590;-122.498;2023-07-09T06:13:06;100888.85;;;20.54;51.12
50632;BME280;49583;45.590;-122.498;2023-07-09T06:15:19;100891.89;;;20.49;51.15
50632;BME280;49583;45.590;-122.498;2023-07-09T06:17:32;100899.73;;;20.44;51.32
50632;BME280;49583;45.590;-122.498;2023-07-09T06:19:44;100902.27;;;20.41;51.39
50632;BME280;49583;45.590;-122.498;2023-07-09T06:22:00;100903.30;;;20.34;51.42
50632;BME280;49583;45.590;-122.498;2023-07-09T06:24:13;100900.33;;;20.29;51.44
50632;BME280;49583;45.590;-122.498;2023-07-09T06:26:26;100903.60;;;20.23;51.43
50632;BME280;49583;45.590;-122.498;2023-07-09T06:28:39;100903.67;;;20.18;51.52
50632;BME280;49583;45.590;-122.498;2023-07-09T06:30:53;100898.38;;;20.11;51.59
50632;BME280;49583;45.590;-122.498;2023-07-09T06:33:07;100900.72;;;20.08;51.70
50632;BME280;49583;45.590;-122.498;2023-07-09T06:35:20;100901.58;;;20.05;51.80
50632;BME280;49583;45.590;-122.498;2023-07-09T06:37:33;100909.31;;;20.02;51.81
50632;BME280;49583;45.590;-122.498;2023-07-09T06:39:46;100905.58;;;19.97;51.86
50632;BME280;49583;45.590;-122.498;2023-07-09T06:41:59;100909.03;;;19.92;51.86
50632;BME280;49583;45.590;-122.498;2023-07-09T06:44:26;100908.80;;;19.87;51.99
50632;BME280;49583;45.590;-122.498;2023-07-09T06:46:39;100909.48;;;19.83;52.07
50632;BME280;49583;45.590;-122.498;2023-07-09T06:48:52;100908.29;;;19.77;52.10
50632;BME280;49583;45.590;-122.498;2023-07-09T06:51:08;100907.48;;;19.71;52.12
50632;BME280;49583;45.590;-122.498;2023-07-09T06:53:21;100910.73;;;19.66;52.22
50632;BME280;49583;45.590;-122.498;2023-07-09T06:55:34;100913.87;;;19.61;52.26
50632;BME280;49583;45.590;-122.498;2023-07-09T06:57:46;100912.75;;;19.56;52.32
50632;BME280;49583;45.590;-122.498;2023-07-09T06:59:59;100915.52;;;19.50;52.46
50632;BME280;49583;45.590;-122.498;2023-07-09T07:02:23;100921.41;;;19.46;52.66
50632;BME280;49583;45.590;-122.498;2023-07-09T07:04:36;100923.37;;;19.41;52.73
50632;BME280;49583;45.590;-122.498;2023-07-09T07:06:49;100922.69;;;19.37;52.88
50632;BME280;49583;45.590;-122.498;2023-07-09T07:09:05;100923.45;;;19.34;52.91
50632;BME280;49583;45.590;-122.498;2023-07-09T07:11:19;100917.77;;;19.30;52.96
50632;BME280;49583;45.590;-122.498;2023-07-09T07:13:42;100914.58;;;19.25;52.96
50632;BME280;49583;45.590;-122.498;2023-07-09T07:15:57;100922.30;;;19.21;53.01
50632;BME280;49583;45.590;-122.498;2023-07-09T07:18:11;100921.71;;;19.17;53.16
50632;BME280;49583;45.590;-122.498;2023-07-09T07:20:24;100917.95;;;19.13;53.17
50632;BME280;49583;45.590;-122.498;2023-07-09T07:22:37;100918.46;;;19.09;53.20
50632;BME280;49583;45.590;-122.498;2023-07-09T07:24:51;100923.11;;;19.04;53.25
50632;BME280;49583;45.590;-122.498;2023-07-09T07:27:05;100925.76;;;19.00;53.36
50632;BME280;49583;45.590;-122.498;2023-07-09T07:29:17;100927.55;;;18.95;53.44
50632;BME280;49583;45.590;-122.498;2023-07-09T07:31:30;100922.59;;;18.90;53.49
50632;BME280;49583;45.590;-122.498;2023-07-09T07:33:43;100921.45;;;18.85;53.49
50632;BME280;49583;45.590;-122.498;2023-07-09T07:35:56;100925.39;;;18.80;53.67
50632;BME280;49583;45.590;-122.498;2023-07-09T07:38:29;100922.45;;;18.70;53.59
50632;BME280;49583;45.590;-122.498;2023-07-09T07:40:48;100932.46;;;18.67;53.86
50632;BME280;49583;45.590;-122.498;2023-07-09T07:43:06;100930.36;;;18.63;53.95
50632;BME280;49583;45.590;-122.498;2023-07-09T07:45:19;100923.86;;;18.60;54.11
50632;BME280;49583;45.590;-122.498;2023-07-09T07:47:32;100929.45;;;18.55;54.18
50632;BME280;49583;45.590;-122.498;2023-07-09T07:49:47;100931.11;;;18.52;54.25
50632;BME280;49583;45.590;-122.498;2023-07-09T07:52:00;100928.22;;;18.47;54.22
50632;BME280;49583;45.590;-122.498;2023-07-09T07:54:14;100924.83;;;18.43;54.46
50632;BME280;49583;45.590;-122.498;2023-07-09T07:56:32;100930.66;;;18.39;54.52
50632;BME280;49583;45.590;-122.498;2023-07-09T07:58:47;100933.75;;;18.36;54.68
50632;BME280;49583;45.590;-122.498;2023-07-09T08:01:00;100928.48;;;18.34;54.78
50632;BME280;49583;45.590;-122.498;2023-07-09T08:03:13;100923.58;;;18.30;54.92
50632;BME280;49583;45.590;-122.498;2023-07-09T08:05:26;100922.25;;;18.27;54.85
50632;BME280;49583;45.590;-122.498;2023-07-09T08:07:42;100921.41;;;18.22;54.94
50632;BME280;49583;45.590;-122.498;2023-07-09T08:09:55;100922.40;;;18.18;55.09
50632;BME280;49583;45.590;-122.498;2023-07-09T08:12:10;100926.76;;;18.14;55.20
50632;BME280;49583;45.590;-122.498;2023-07-09T08:14:24;100923.09;;;18.05;55.30
50632;BME280;49583;45.590;-122.498;2023-07-09T08:16:37;100920.27;;;18.02;55.52
50632;BME280;49583;45.590;-122.498;2023-07-09T08:18:50;100919.95;;;17.99;55.54
50632;BME280;49583;45.590;-122.498;2023-07-09T08:21:03;100924.26;;;17.94;55.72
50632;BME280;49583;45.590;-122.498;2023-07-09T08:23:16;100919.45;;;17.88;55.75
50632;BME280;49583;45.590;-122.498;2023-07-09T08:25:29;100921.92;;;17.87;55.89
50632;BME280;49583;45.590;-122.498;2023-07-09T08:27:42;100925.81;;;17.83;55.98
50632;BME280;49583;45.590;-122.498;2023-07-09T08:29:55;100922.98;;;17.79;56.11
50632;BME280;49583;45.590;-122.498;2023-07-09T08:32:10;100916.58;;;17.76;56.12
50632;BME280;49583;45.590;-122.498;2023-07-09T08:34:23;100916.13;;;17.72;56.27
50632;BME280;49583;45.590;-122.498;2023-07-09T08:36:35;100918.44;;;17.68;56.32
50632;BME280;49583;45.590;-122.498;2023-07-09T08:38:48;100916.71;;;17.64;56.43
50632;BME280;49583;45.590;-122.498;2023-07-09T08:41:02;100920.58;;;17.62;56.59
50632;BME280;49583;45.590;-122.498;2023-07-09T08:43:26;100920.81;;;17.58;56.68
50632;BME280;49583;45.590;-122.498;2023-07-09T08:45:47;100925.26;;;17.55;56.78
50632;BME280;49583;45.590;-122.498;2023-07-09T08:48:06;100917.19;;;17.53;56.87
50632;BME280;49583;45.590;-122.498;2023-07-09T08:50:28;100914.44;;;17.50;56.97
50632;BME280;49583;45.590;-122.498;2023-07-09T08:52:46;100916.66;;;17.46;57.07
50632;BME280;49583;45.590;-122.498;2023-07-09T08:55:02;100914.70;;;17.42;57.16
50632;BME280;49583;45.590;-122.498;2023-07-09T08:57:22;100919.37;;;17.38;57.21
50632;BME280;49583;45.590;-122.498;2023-07-09T08:59:37;100917.41;;;17.34;57.28
50632;BME280;49583;45.590;-122.498;2023-07-09T09:01:52;100915.45;;;17.32;57.43
50632;BME280;49583;45.590;-122.498;2023-07-09T09:04:17;100918.85;;;17.27;57.61
50632;BME280;49583;45.590;-122.498;2023-07-09T09:06:33;100924.63;;;17.19;57.51
50632;BME280;49583;45.590;-122.498;2023-07-09T09:08:54;100925.52;;;17.16;57.75
50632;BME280;49583;45.590;-122.498;2023-07-09T09:11:18;100921.95;;;17.13;57.85
50632;BME280;49583;45.590;-122.498;2023-07-09T09:13:33;100913.83;;;17.10;57.88
50632;BME280;49583;45.590;-122.498;2023-07-09T09:15:49;100917.23;;;17.07;58.04
50632;BME280;49583;45.590;-122.498;2023-07-09T09:18:17;100915.09;;;17.05;58.12
50632;BME280;49583;45.590;-122.498;2023-07-09T09:20:31;100917.54;;;17.04;58.24
50632;BME280;49583;45.590;-122.498;2023-07-09T09:22:47;100917.63;;;17.01;58.28
50632;BME280;49583;45.590;-122.498;2023-07-09T09:25:11;100919.36;;;16.98;58.41
50632;BME280;49583;45.590;-122.498;2023-07-09T09:27:27;100916.98;;;16.97;58.53
50632;BME280;49583;45.590;-122.498;2023-07-09T09:29:41;100919.21;;;16.96;58.55
50632;BME280;49583;45.590;-122.498;2023-07-09T09:31:56;100918.27;;;16.94;58.60
50632;BME280;49583;45.590;-122.498;2023-07-09T09:34:20;100911.94;;;16.92;58.62
50632;BME280;49583;45.590;-122.498;2023-07-09T09:36:36;100916.98;;;16.89;58.77
50632;BME280;49583;45.590;-122.498;2023-07-09T09:38:49;100924.20;;;16.87;58.80
50632;BME280;49583;45.590;-122.498;2023-07-09T09:41:04;100922.38;;;16.86;58.85
50632;BME280;49583;45.590;-122.498;2023-07-09T09:43:18;100926.64;;;16.83;59.00
50632;BME280;49583;45.590;-122.498;2023-07-09T09:45:37;100929.89;;;16.79;59.05
50632;BME280;49583;45.590;-122.498;2023-07-09T09:47:51;100927.98;;;16.76;59.06
50632;BME280;49583;45.590;-122.498;2023-07-09T09:50:05;100924.98;;;16.73;59.09
50632;BME280;49583;45.590;-122.498;2023-07-09T09:52:19;100927.29;;;16.70;59.15
50632;BME280;49583;45.590;-122.498;2023-07-09T09:54:33;100926.26;;;16.68;59.30
50632;BME280;49583;45.590;-122.498;2023-07-09T09:56:47;100922.30;;;16.65;59.40
50632;BME280;49583;45.590;-122.498;2023-07-09T09:59:00;100927.98;;;16.62;59.42
50632;BME280;49583;45.590;-122.498;2023-07-09T10:01:17;100922.73;;;16.60;59.53
50632;BME280;49583;45.590;-122.498;2023-07-09T10:03:37;100925.34;;;16.59;59.59
50632;BME280;49583;45.590;-122.498;2023-07-09T10:05:55;100926.38;;;16.57;59.65
50632;BME280;49583;45.590;-122.498;2023-07-09T10:08:12;100928.84;;;16.55;59.73
50632;BME280;49583;45.590;-122.498;2023-07-09T10:10:30;100929.84;;;16.51;59.80
50632;BME280;49583;45.590;-122.498;2023-07-09T10:12:52;100929.91;;;16.50;59.88
50632;BME280;49583;45.590;-122.498;2023-07-09T10:15:16;100923.52;;;16.47;59.93
50632;BME280;49583;45.590;-122.498;2023-07-09T10:17:38;100922.33;;;16.44;60.02
50632;BME280;49583;45.590;-122.498;2023-07-09T10:19:59;100930.68;;;16.43;60.07
50632;BME280;49583;45.590;-122.498;2023-07-09T10:22:22;100929.28;;;16.40;60.16
50632;BME280;49583;45.590;-122.498;2023-07-09T10:24:49;100930.62;;;16.38;60.22
50632;BME280;49583;45.590;-122.498;2023-07-09T10:27:08;100930.20;;;16.36;60.29
50632;BME280;49583;45.590;-122.498;2023-07-09T10:29:43;100926.89;;;16.34;60.31
50632;BME280;49583;45.590;-122.498;2023-07-09T10:32:04;100928.79;;;16.31;60.40
50632;BME280;49583;45.590;-122.498;2023-07-09T10:34:28;100935.80;;;16.28;60.46
50632;BME280;49583;45.590;-122.498;2023-07-09T10:36:58;100932.33;;;16.24;60.49
50632;BME280;49583;45.590;-122.498;2023-07-09T10:39:17;100940.13;;;16.22;60.68
50632;BME280;49583;45.590;-122.498;2023-07-09T10:41:33;100943.35;;;16.19;60.75
50632;BME280;49583;45.590;-122.498;2023-07-09T10:43:50;100939.09;;;16.14;60.74
50632;BME280;49583;45.590;-122.498;2023-07-09T10:46:09;100940.56;;;16.11;60.85
50632;BME280;49583;45.590;-122.498;2023-07-09T10:48:31;100942.46;;;16.08;60.87
50632;BME280;49583;45.590;-122.498;2023-07-09T10:50:47;100940.16;;;16.05;61.00
50632;BME280;49583;45.590;-122.498;2023-07-09T10:53:05;100939.29;;;16.02;61.13
50632;BME280;49583;45.590;-122.498;2023-07-09T10:55:26;100935.10;;;16.00;61.16
50632;BME280;49583;45.590;-122.498;2023-07-09T10:57:47;100936.90;;;15.97;61.26
50632;BME280;49583;45.590;-122.498;2023-07-09T11:00:01;100942.65;;;15.96;61.28
50632;BME280;49583;45.590;-122.498;2023-07-09T11:02:21;100930.48;;;15.91;61.37
50632;BME280;49583;45.590;-122.498;2023-07-09T11:04:39;100934.44;;;15.92;61.45
50632;BME280;49583;45.590;-122.498;2023-07-09T11:06:55;100942.16;;;15.90;61.53
50632;BME280;49583;45.590;-122.498;2023-07-09T11:09:17;100937.73;;;15.88;61.59
50632;BME280;49583;45.590;-122.498;2023-07-09T11:11:37;100933.55;;;15.85;61.52
50632;BME280;49583;45.590;-122.498;2023-07-09T11:13:54;100932.05;;;15.84;61.62
50632;BME280;49583;45.590;-122.498;2023-07-09T11:16:16;100929.34;;;15.82;61.68
50632;BME280;49583;45.590;-122.498;2023-07-09T11:18:35;100931.23;;;15.81;61.73
50632;BME280;49583;45.590;-122.498;2023-07-09T11:20:54;100923.66;;;15.78;61.83
50632;BME280;49583;45.590;-122.498;2023-07-09T11:23:16;100924.26;;;15.73;61.79
50632;BME280;49583;45.590;-122.498;2023-07-09T11:25:41;100926.23;;;15.69;61.95
50632;BME280;49583;45.590;-122.498;2023-07-09T11:28:02;100932.04;;;15.65;61.93
50632;BME280;49583;45.590;-122.498;2023-07-09T11:30:24;100927.21;;;15.62;62.09
50632;BME280;49583;45.590;-122.498;2023-07-09T11:32:47;100927.75;;;15.60;62.29